sensor_id;sensor_type;location;lat;lon;timestamp;P1;durP1;ratioP1;P2;durP2;ratioP2
21833;SDS011;11079;51.092;3.458;2023-12-07T00:00:55;126.47;;;19.30;;
21833;SDS011;11079;51.092;3.458;2023-12-07T00:03:21;104.97;;;18.60;;
21833;SDS011;11079;51.092;3.458;2023-12-07T00:05:53;87.27;;;21.33;;
21833;SDS011;11079;51.092;3.458;2023-12-07T00:08:30;128.73;;;19.60;;
21833;SDS011;11079;51.092;3.458;2023-12-07T00:10:57;172.30;;;24.77;;
21833;SDS011;11079;51.092;3.458;2023-12-07T00:13:23;129.20;;;19.67;;
21833;SDS011;11079;51.092;3.458;2023-12-07T00:15:53;160.93;;;25.97;;
21833;SDS011;11079;51.092;3.458;2023-12-07T00:18:18;158.73;;;24.20;;
21833;SDS011;11079;51.092;3.458;2023-12-07T00:20:51;121.63;;;20.73;;
21833;SDS011;11079;51.092;3.458;2023-12-07T00:23:35;86.83;;;20.90;;
21833;SDS011;11079;51.092;3.458;2023-12-07T00:26:03;80.97;;;18.63;;
21833;SDS011;11079;51.092;3.458;2023-12-07T00:28:48;107.70;;;20.97;;
21833;SDS011;11079;51.092;3.458;2023-12-07T00:31:21;109.37;;;23.00;;
21833;SDS011;11079;51.092;3.458;2023-12-07T00:33:52;108.73;;;23.63;;
21833;SDS011;11079;51.092;3.458;2023-12-07T00:36:18;93.50;;;22.77;;
21833;SDS011;11079;51.092;3.458;2023-12-07T00:38:45;149.77;;;27.43;;
21833;SDS011;11079;51.092;3.458;2023-12-07T00:41:13;91.27;;;20.70;;
21833;SDS011;11079;51.092;3.458;2023-12-07T00:43:58;161.03;;;30.67;;
21833;SDS011;11079;51.092;3.458;2023-12-07T00:46:32;82.23;;;19.23;;
21833;SDS011;11079;51.092;3.458;2023-12-07T00:48:59;109.23;;;23.50;;
21833;SDS011;11079;51.092;3.458;2023-12-07T00:51:25;61.40;;;17.37;;
21833;SDS011;11079;51.092;3.458;2023-12-07T00:53:51;144.93;;;24.03;;
21833;SDS011;11079;51.092;3.458;2023-12-07T00:56:19;141.50;;;23.20;;
21833;SDS011;11079;51.092;3.458;2023-12-07T00:58:45;134.77;;;26.80;;
21833;SDS011;11079;51.092;3.458;2023-12-07T01:01:12;91.50;;;19.23;;
21833;SDS011;11079;51.092;3.458;2023-12-07T01:03:38;79.07;;;18.53;;
21833;SDS011;11079;51.092;3.458;2023-12-07T01:06:05;67.93;;;17.17;;
21833;SDS011;11079;51.092;3.458;2023-12-07T01:08:32;106.80;;;20.67;;
21833;SDS011;11079;51.092;3.458;2023-12-07T01:10:57;87.97;;;21.77;;
21833;SDS011;11079;51.092;3.458;2023-12-07T01:13:26;76.33;;;19.90;;
21833;SDS011;11079;51.092;3.458;2023-12-07T01:15:54;93.73;;;20.00;;
21833;SDS011;11079;51.092;3.458;2023-12-07T01:18:20;58.70;;;17.77;;
21833;SDS011;11079;51.092;3.458;2023-12-07T01:20:46;68.10;;;17.47;;
21833;SDS011;11079;51.092;3.458;2023-12-07T01:23:13;59.23;;;18.57;;
21833;SDS011;11079;51.092;3.458;2023-12-07T01:25:47;48.80;;;15.40;;
21833;SDS011;11079;51.092;3.458;2023-12-07T01:28:13;55.27;;;16.90;;
21833;SDS011;11079;51.092;3.458;2023-12-07T01:30:39;48.50;;;16.33;;
21833;SDS011;11079;51.092;3.458;2023-12-07T01:33:08;85.83;;;18.77;;
21833;SDS011;11079;51.092;3.458;2023-12-07T01:35:36;42.23;;;16.63;;
21833;SDS011;11079;51.092;3.458;2023-12-07T01:38:01;55.60;;;18.07;;
21833;SDS011;11079;51.092;3.458;2023-12-07T01:40:45;69.07;;;18.43;;
21833;SDS011;11079;51.092;3.458;2023-12-07T01:43:12;51.27;;;17.00;;
21833;SDS011;11079;51.092;3.458;2023-12-07T01:45:38;63.23;;;19.63;;
21833;SDS011;11079;51.092;3.458;2023-12-07T01:48:03;81.03;;;20.40;;
21833;SDS011;11079;51.092;3.458;2023-12-07T01:50:29;82.90;;;22.17;;
21833;SDS011;11079;51.092;3.458;2023-12-07T01:53:01;76.13;;;20.47;;
21833;SDS011;11079;51.092;3.458;2023-12-07T01:55:50;73.03;;;22.33;;
21833;SDS011;11079;51.092;3.458;2023-12-07T01:58:18;80.40;;;21.53;;
21833;SDS011;11079;51.092;3.458;2023-12-07T02:00:48;103.10;;;25.10;;
21833;SDS011;11079;51.092;3.458;2023-12-07T02:03:37;88.60;;;21.23;;
21833;SDS011;11079;51.092;3.458;2023-12-07T02:06:05;93.17;;;26.30;;
21833;SDS011;11079;51.092;3.458;2023-12-07T02:08:31;95.50;;;25.10;;
21833;SDS011;11079;51.092;3.458;2023-12-07T02:11:15;95.30;;;25.70;;
21833;SDS011;11079;51.092;3.458;2023-12-07T02:13:49;94.33;;;25.57;;
21833;SDS011;11079;51.092;3.458;2023-12-07T02:16:38;83.17;;;23.13;;
21833;SDS011;11079;51.092;3.458;2023-12-07T02:22:30;79.97;;;24.47;;
21833;SDS011;11079;51.092;3.458;2023-12-07T02:25:14;75.03;;;25.70;;
21833;SDS011;11079;51.092;3.458;2023-12-07T02:27:45;79.37;;;26.07;;
21833;SDS011;11079;51.092;3.458;2023-12-07T02:30:13;81.60;;;27.47;;
21833;SDS011;11079;51.092;3.458;2023-12-07T02:32:45;75.07;;;24.63;;
21833;SDS011;11079;51.092;3.458;2023-12-07T02:35:31;76.67;;;25.90;;
21833;SDS011;11079;51.092;3.458;2023-12-07T02:38:05;80.77;;;27.30;;
21833;SDS011;11079;51.092;3.458;2023-12-07T02:40:34;74.50;;;25.17;;
21833;SDS011;11079;51.092;3.458;2023-12-07T02:43:03;76.43;;;26.30;;
21833;SDS011;11079;51.092;3.458;2023-12-07T02:45:31;76.20;;;27.53;;
21833;SDS011;11079;51.092;3.458;2023-12-07T02:48:09;61.90;;;23.23;;
21833;SDS011;11079;51.092;3.458;2023-12-07T02:50:35;69.53;;;24.67;;
21833;SDS011;11079;51.092;3.458;2023-12-07T02:53:27;73.00;;;23.83;;
21833;SDS011;11079;51.092;3.458;2023-12-07T02:55:56;79.33;;;26.73;;
21833;SDS011;11079;51.092;3.458;2023-12-07T02:58:24;66.97;;;24.83;;
21833;SDS011;11079;51.092;3.458;2023-12-07T03:00:52;66.23;;;26.63;;
21833;SDS011;11079;51.092;3.458;2023-12-07T03:04:06;75.97;;;26.00;;
21833;SDS011;11079;51.092;3.458;2023-12-07T03:06:47;70.70;;;25.63;;
21833;SDS011;11079;51.092;3.458;2023-12-07T03:12:17;63.60;;;26.20;;
21833;SDS011;11079;51.092;3.458;2023-12-07T03:14:45;65.70;;;23.83;;
21833;SDS011;11079;51.092;3.458;2023-12-07T03:17:30;69.17;;;25.20;;
21833;SDS011;11079;51.092;3.458;2023-12-07T03:20:38;66.43;;;24.67;;
21833;SDS011;11079;51.092;3.458;2023-12-07T03:23:12;77.33;;;25.37;;
21833;SDS011;11079;51.092;3.458;2023-12-07T03:25:44;67.00;;;25.80;;
21833;SDS011;11079;51.092;3.458;2023-12-07T03:28:21;79.37;;;28.23;;
21833;SDS011;11079;51.092;3.458;2023-12-07T03:31:05;64.70;;;24.03;;
21833;SDS011;11079;51.092;3.458;2023-12-07T03:33:35;66.77;;;23.87;;
21833;SDS011;11079;51.092;3.458;2023-12-07T03:36:28;70.03;;;26.30;;
21833;SDS011;11079;51.092;3.458;2023-12-07T03:38:59;64.63;;;23.87;;
21833;SDS011;11079;51.092;3.458;2023-12-07T03:41:35;65.40;;;24.53;;
21833;SDS011;11079;51.092;3.458;2023-12-07T03:44:21;67.63;;;27.77;;
21833;SDS011;11079;51.092;3.458;2023-12-07T03:49:57;64.97;;;23.87;;
21833;SDS011;11079;51.092;3.458;2023-12-07T03:52:23;72.57;;;24.87;;
21833;SDS011;11079;51.092;3.458;2023-12-07T03:54:56;63.87;;;23.33;;
21833;SDS011;11079;51.092;3.458;2023-12-07T03:57:26;71.80;;;24.60;;
21833;SDS011;11079;51.092;3.458;2023-12-07T04:00:10;66.47;;;25.33;;
21833;SDS011;11079;51.092;3.458;2023-12-07T04:02:36;68.47;;;24.70;;
21833;SDS011;11079;51.092;3.458;2023-12-07T04:05:05;67.63;;;23.50;;
21833;SDS011;11079;51.092;3.458;2023-12-07T04:07:55;66.33;;;25.10;;
21833;SDS011;11079;51.092;3.458;2023-12-07T04:10:21;61.67;;;23.10;;
21833;SDS011;11079;51.092;3.458;2023-12-07T04:12:47;65.43;;;22.77;;
21833;SDS011;11079;51.092;3.458;2023-12-07T04:15:13;59.43;;;22.33;;
21833;SDS011;11079;51.092;3.458;2023-12-07T04:17:45;64.73;;;22.40;;
21833;SDS011;11079;51.092;3.458;2023-12-07T04:20:13;63.93;;;23.67;;
21833;SDS011;11079;51.092;3.458;2023-12-07T04:22:52;67.90;;;24.30;;
21833;SDS011;11079;51.092;3.458;2023-12-07T04:25:18;68.40;;;25.03;;
21833;SDS011;11079;51.092;3.458;2023-12-07T04:27:47;65.40;;;22.83;;
21833;SDS011;11079;51.092;3.458;2023-12-07T04:30:17;52.60;;;21.70;;
21833;SDS011;11079;51.092;3.458;2023-12-07T04:32:45;60.10;;;21.70;;
21833;SDS011;11079;51.092;3.458;2023-12-07T04:35:17;58.50;;;21.50;;
21833;SDS011;11079;51.092;3.458;2023-12-07T04:37:43;61.43;;;22.37;;
21833;SDS011;11079;51.092;3.458;2023-12-07T04:40:12;56.37;;;21.67;;
21833;SDS011;11079;51.092;3.458;2023-12-07T04:42:37;57.03;;;22.47;;
21833;SDS011;11079;51.092;3.458;2023-12-07T04:45:26;51.63;;;20.63;;
21833;SDS011;11079;51.092;3.458;2023-12-07T04:47:55;57.83;;;22.60;;
21833;SDS011;11079;51.092;3.458;2023-12-07T04:53:37;54.87;;;22.10;;
21833;SDS011;11079;51.092;3.458;2023-12-07T04:56:43;55.33;;;22.80;;
21833;SDS011;11079;51.092;3.458;2023-12-07T04:59:23;56.17;;;21.47;;
21833;SDS011;11079;51.092;3.458;2023-12-07T05:01:53;55.80;;;21.67;;
21833;SDS011;11079;51.092;3.458;2023-12-07T05:04:45;58.73;;;21.80;;
21833;SDS011;11079;51.092;3.458;2023-12-07T05:07:20;56.83;;;21.87;;
21833;SDS011;11079;51.092;3.458;2023-12-07T05:09:47;53.40;;;21.33;;
21833;SDS011;11079;51.092;3.458;2023-12-07T05:12:24;63.00;;;24.00;;
21833;SDS011;11079;51.092;3.458;2023-12-07T05:14:55;62.07;;;22.00;;
21833;SDS011;11079;51.092;3.458;2023-12-07T05:17:24;48.47;;;21.50;;
21833;SDS011;11079;51.092;3.458;2023-12-07T05:19:54;57.43;;;21.30;;
21833;SDS011;11079;51.092;3.458;2023-12-07T05:22:30;58.87;;;22.47;;
21833;SDS011;11079;51.092;3.458;2023-12-07T05:25:07;56.73;;;23.70;;
21833;SDS011;11079;51.092;3.458;2023-12-07T05:27:37;60.50;;;24.03;;
21833;SDS011;11079;51.092;3.458;2023-12-07T05:30:23;56.67;;;22.83;;
21833;SDS011;11079;51.092;3.458;2023-12-07T05:33:00;51.67;;;22.83;;
21833;SDS011;11079;51.092;3.458;2023-12-07T05:35:51;55.43;;;23.50;;
21833;SDS011;11079;51.092;3.458;2023-12-07T05:38:30;55.97;;;23.87;;
21833;SDS011;11079;51.092;3.458;2023-12-07T05:41:21;61.40;;;23.07;;
21833;SDS011;11079;51.092;3.458;2023-12-07T05:44:31;52.90;;;23.87;;
21833;SDS011;11079;51.092;3.458;2023-12-07T05:46:58;53.43;;;23.57;;
21833;SDS011;11079;51.092;3.458;2023-12-07T05:49:35;50.57;;;23.97;;
21833;SDS011;11079;51.092;3.458;2023-12-07T05:52:03;48.67;;;22.53;;
21833;SDS011;11079;51.092;3.458;2023-12-07T05:54:44;50.10;;;23.20;;
21833;SDS011;11079;51.092;3.458;2023-12-07T05:57:24;54.13;;;23.67;;
21833;SDS011;11079;51.092;3.458;2023-12-07T05:59:57;50.90;;;23.67;;
21833;SDS011;11079;51.092;3.458;2023-12-07T06:02:37;56.30;;;24.47;;
21833;SDS011;11079;51.092;3.458;2023-12-07T06:06:01;48.53;;;23.47;;
21833;SDS011;11079;51.092;3.458;2023-12-07T06:08:35;51.50;;;23.87;;
21833;SDS011;11079;51.092;3.458;2023-12-07T06:14:46;45.93;;;21.33;;
21833;SDS011;11079;51.092;3.458;2023-12-07T06:17:41;45.43;;;21.73;;
21833;SDS011;11079;51.092;3.458;2023-12-07T06:20:29;40.60;;;21.90;;
21833;SDS011;11079;51.092;3.458;2023-12-07T06:26:24;40.67;;;20.50;;
21833;SDS011;11079;51.092;3.458;2023-12-07T06:28:59;42.73;;;21.33;;
21833;SDS011;11079;51.092;3.458;2023-12-07T06:31:45;39.97;;;20.43;;
21833;SDS011;11079;51.092;3.458;2023-12-07T06:34:46;43.07;;;21.43;;
21833;SDS011;11079;51.092;3.458;2023-12-07T06:38:01;36.63;;;19.70;;
21833;SDS011;11079;51.092;3.458;2023-12-07T06:40:44;38.70;;;19.73;;
21833;SDS011;11079;51.092;3.458;2023-12-07T06:43:37;36.97;;;20.40;;
21833;SDS011;11079;51.092;3.458;2023-12-07T06:46:32;38.93;;;18.23;;
21833;SDS011;11079;51.092;3.458;2023-12-07T06:49:06;38.90;;;18.97;;
21833;SDS011;11079;51.092;3.458;2023-12-07T06:51:51;39.13;;;19.53;;
21833;SDS011;11079;51.092;3.458;2023-12-07T06:54:56;39.37;;;17.97;;
21833;SDS011;11079;51.092;3.458;2023-12-07T06:57:43;33.80;;;17.73;;
21833;SDS011;11079;51.092;3.458;2023-12-07T07:14:01;38.57;;;19.03;;
21833;SDS011;11079;51.092;3.458;2023-12-07T07:16:57;29.63;;;16.97;;
21833;SDS011;11079;51.092;3.458;2023-12-07T07:19:23;36.23;;;16.97;;
21833;SDS011;11079;51.092;3.458;2023-12-07T07:21:49;36.00;;;18.23;;
21833;SDS011;11079;51.092;3.458;2023-12-07T07:24:15;37.90;;;17.30;;
21833;SDS011;11079;51.092;3.458;2023-12-07T07:26:41;35.47;;;17.97;;
21833;SDS011;11079;51.092;3.458;2023-12-07T07:29:09;28.47;;;16.73;;
21833;SDS011;11079;51.092;3.458;2023-12-07T07:31:41;32.57;;;17.83;;
21833;SDS011;11079;51.092;3.458;2023-12-07T07:34:07;28.50;;;17.43;;
21833;SDS011;11079;51.092;3.458;2023-12-07T07:36:34;32.40;;;18.13;;
21833;SDS011;11079;51.092;3.458;2023-12-07T07:39:04;34.00;;;17.23;;
21833;SDS011;11079;51.092;3.458;2023-12-07T07:41:36;38.63;;;19.27;;
21833;SDS011;11079;51.092;3.458;2023-12-07T07:44:03;31.50;;;16.73;;
21833;SDS011;11079;51.092;3.458;2023-12-07T07:46:29;36.13;;;17.30;;
21833;SDS011;11079;51.092;3.458;2023-12-07T07:49:03;33.97;;;17.30;;
21833;SDS011;11079;51.092;3.458;2023-12-07T07:51:47;29.97;;;15.63;;
21833;SDS011;11079;51.092;3.458;2023-12-07T07:54:13;32.33;;;16.57;;
21833;SDS011;11079;51.092;3.458;2023-12-07T07:56:41;34.63;;;16.40;;
21833;SDS011;11079;51.092;3.458;2023-12-07T07:59:09;31.67;;;17.03;;
21833;SDS011;11079;51.092;3.458;2023-12-07T08:01:38;28.97;;;16.70;;
21833;SDS011;11079;51.092;3.458;2023-12-07T08:04:04;34.40;;;17.60;;
21833;SDS011;11079;51.092;3.458;2023-12-07T08:06:32;27.30;;;15.67;;
21833;SDS011;11079;51.092;3.458;2023-12-07T08:08:59;33.23;;;16.90;;
21833;SDS011;11079;51.092;3.458;2023-12-07T08:11:29;30.10;;;16.57;;
21833;SDS011;11079;51.092;3.458;2023-12-07T08:13:58;32.80;;;16.73;;
21833;SDS011;11079;51.092;3.458;2023-12-07T08:16:24;27.93;;;16.27;;
21833;SDS011;11079;51.092;3.458;2023-12-07T08:18:52;28.87;;;15.40;;
21833;SDS011;11079;51.092;3.458;2023-12-07T08:21:21;30.52;;;15.75;;
21833;SDS011;11079;51.092;3.458;2023-12-07T08:24:07;32.17;;;16.17;;
21833;SDS011;11079;51.092;3.458;2023-12-07T08:26:34;24.60;;;14.83;;
21833;SDS011;11079;51.092;3.458;2023-12-07T08:29:00;29.07;;;16.97;;
21833;SDS011;11079;51.092;3.458;2023-12-07T08:31:30;28.40;;;15.93;;
21833;SDS011;11079;51.092;3.458;2023-12-07T08:33:56;28.20;;;16.10;;
21833;SDS011;11079;51.092;3.458;2023-12-07T08:36:22;25.97;;;14.77;;
21833;SDS011;11079;51.092;3.458;2023-12-07T08:39:08;30.00;;;14.73;;
21833;SDS011;11079;51.092;3.458;2023-12-07T08:41:35;28.70;;;14.90;;
21833;SDS011;11079;51.092;3.458;2023-12-07T08:44:10;30.87;;;16.90;;
21833;SDS011;11079;51.092;3.458;2023-12-07T08:46:40;31.02;;;16.60;;
21833;SDS011;11079;51.092;3.458;2023-12-07T08:49:10;26.48;;;15.27;;
21833;SDS011;11079;51.092;3.458;2023-12-07T08:51:40;29.23;;;15.60;;
21833;SDS011;11079;51.092;3.458;2023-12-07T08:54:08;26.57;;;15.20;;
21833;SDS011;11079;51.092;3.458;2023-12-07T08:56:34;27.17;;;14.60;;
21833;SDS011;11079;51.092;3.458;2023-12-07T08:59:00;23.42;;;14.43;;
21833;SDS011;11079;51.092;3.458;2023-12-07T09:01:31;26.58;;;15.63;;
21833;SDS011;11079;51.092;3.458;2023-12-07T09:03:58;31.85;;;15.40;;
21833;SDS011;11079;51.092;3.458;2023-12-07T09:06:26;25.85;;;15.20;;
21833;SDS011;11079;51.092;3.458;2023-12-07T09:08:52;27.30;;;15.45;;
21833;SDS011;11079;51.092;3.458;2023-12-07T09:11:18;26.25;;;15.10;;
21833;SDS011;11079;51.092;3.458;2023-12-07T09:14:14;28.77;;;14.75;;
21833;SDS011;11079;51.092;3.458;2023-12-07T09:16:45;24.90;;;14.18;;
21833;SDS011;11079;51.092;3.458;2023-12-07T09:22:00;24.52;;;13.32;;
21833;SDS011;11079;51.092;3.458;2023-12-07T09:24:43;25.40;;;12.98;;
21833;SDS011;11079;51.092;3.458;2023-12-07T09:27:08;21.95;;;13.35;;
21833;SDS011;11079;51.092;3.458;2023-12-07T09:29:35;26.15;;;12.45;;
21833;SDS011;11079;51.092;3.458;2023-12-07T09:32:03;23.23;;;13.00;;
21833;SDS011;11079;51.092;3.458;2023-12-07T09:34:29;19.73;;;11.90;;
21833;SDS011;11079;51.092;3.458;2023-12-07T09:37:08;19.98;;;12.10;;
21833;SDS011;11079;51.092;3.458;2023-12-07T09:39:35;21.48;;;11.55;;
21833;SDS011;11079;51.092;3.458;2023-12-07T09:42:01;18.55;;;11.48;;
21833;SDS011;11079;51.092;3.458;2023-12-07T09:44:36;21.42;;;10.77;;
21833;SDS011;11079;51.092;3.458;2023-12-07T09:49:51;21.77;;;12.23;;
21833;SDS011;11079;51.092;3.458;2023-12-07T09:52:34;19.63;;;11.73;;
21833;SDS011;11079;51.092;3.458;2023-12-07T09:55:09;19.38;;;11.80;;
21833;SDS011;11079;51.092;3.458;2023-12-07T09:57:37;16.80;;;11.77;;
21833;SDS011;11079;51.092;3.458;2023-12-07T10:00:03;19.55;;;11.65;;
21833;SDS011;11079;51.092;3.458;2023-12-07T10:02:38;20.42;;;11.45;;
21833;SDS011;11079;51.092;3.458;2023-12-07T10:05:06;20.60;;;11.93;;
21833;SDS011;11079;51.092;3.458;2023-12-07T10:07:41;18.77;;;11.00;;
21833;SDS011;11079;51.092;3.458;2023-12-07T10:10:44;16.65;;;10.57;;
21833;SDS011;11079;51.092;3.458;2023-12-07T10:23:06;16.33;;;10.07;;
21833;SDS011;11079;51.092;3.458;2023-12-07T10:25:37;16.33;;;10.05;;
21833;SDS011;11079;51.092;3.458;2023-12-07T10:28:04;15.90;;;9.93;;
21833;SDS011;11079;51.092;3.458;2023-12-07T10:30:32;16.90;;;9.95;;
21833;SDS011;11079;51.092;3.458;2023-12-07T10:33:02;18.05;;;10.63;;
21833;SDS011;11079;51.092;3.458;2023-12-07T10:35:38;15.45;;;9.65;;
21833;SDS011;11079;51.092;3.458;2023-12-07T10:38:04;24.30;;;11.10;;
21833;SDS011;11079;51.092;3.458;2023-12-07T10:40:30;17.73;;;10.15;;
21833;SDS011;11079;51.092;3.458;2023-12-07T10:42:56;13.60;;;9.07;;
21833;SDS011;11079;51.092;3.458;2023-12-07T10:45:26;16.15;;;10.10;;
21833;SDS011;11079;51.092;3.458;2023-12-07T10:51:02;17.80;;;9.55;;
21833;SDS011;11079;51.092;3.458;2023-12-07T10:53:42;15.77;;;9.82;;
21833;SDS011;11079;51.092;3.458;2023-12-07T10:56:28;14.43;;;9.75;;
21833;SDS011;11079;51.092;3.458;2023-12-07T10:59:38;17.60;;;9.60;;
21833;SDS011;11079;51.092;3.458;2023-12-07T11:02:07;13.18;;;8.98;;
21833;SDS011;11079;51.092;3.458;2023-12-07T11:04:37;18.08;;;9.25;;
21833;SDS011;11079;51.092;3.458;2023-12-07T11:07:05;18.38;;;9.50;;
21833;SDS011;11079;51.092;3.458;2023-12-07T11:09:38;17.02;;;9.60;;
21833;SDS011;11079;51.092;3.458;2023-12-07T11:15:00;17.05;;;9.85;;
21833;SDS011;11079;51.092;3.458;2023-12-07T11:17:27;16.63;;;10.25;;
21833;SDS011;11079;51.092;3.458;2023-12-07T11:19:53;22.27;;;10.20;;
21833;SDS011;11079;51.092;3.458;2023-12-07T11:22:19;20.55;;;10.77;;
21833;SDS011;11079;51.092;3.458;2023-12-07T11:24:55;16.48;;;9.90;;
21833;SDS011;11079;51.092;3.458;2023-12-07T11:27:29;18.65;;;10.50;;
21833;SDS011;11079;51.092;3.458;2023-12-07T11:29:57;18.23;;;10.35;;
21833;SDS011;11079;51.092;3.458;2023-12-07T11:32:26;20.15;;;11.02;;
21833;SDS011;11079;51.092;3.458;2023-12-07T11:34:52;16.60;;;11.18;;
21833;SDS011;11079;51.092;3.458;2023-12-07T11:37:19;16.23;;;9.52;;
21833;SDS011;11079;51.092;3.458;2023-12-07T11:39:47;18.77;;;11.23;;
21833;SDS011;11079;51.092;3.458;2023-12-07T11:42:18;17.30;;;10.65;;
21833;SDS011;11079;51.092;3.458;2023-12-07T11:44:47;16.42;;;10.00;;
21833;SDS011;11079;51.092;3.458;2023-12-07T11:47:18;17.35;;;9.93;;
21833;SDS011;11079;51.092;3.458;2023-12-07T11:49:45;16.85;;;9.90;;
21833;SDS011;11079;51.092;3.458;2023-12-07T11:52:12;17.90;;;9.93;;
21833;SDS011;11079;51.092;3.458;2023-12-07T11:54:46;19.50;;;10.23;;
21833;SDS011;11079;51.092;3.458;2023-12-07T11:57:14;18.75;;;9.30;;
21833;SDS011;11079;51.092;3.458;2023-12-07T11:59:44;16.58;;;9.95;;
21833;SDS011;11079;51.092;3.458;2023-12-07T12:02:10;16.25;;;11.02;;
21833;SDS011;11079;51.092;3.458;2023-12-07T12:04:37;14.95;;;9.52;;
21833;SDS011;11079;51.092;3.458;2023-12-07T12:07:03;18.80;;;9.95;;
21833;SDS011;11079;51.092;3.458;2023-12-07T12:09:29;19.15;;;10.13;;
21833;SDS011;11079;51.092;3.458;2023-12-07T12:11:56;16.15;;;9.65;;
21833;SDS011;11079;51.092;3.458;2023-12-07T12:14:25;18.30;;;9.88;;
21833;SDS011;11079;51.092;3.458;2023-12-07T12:16:51;15.25;;;9.57;;
21833;SDS011;11079;51.092;3.458;2023-12-07T12:19:17;15.07;;;9.20;;
21833;SDS011;11079;51.092;3.458;2023-12-07T12:21:43;15.35;;;9.27;;
21833;SDS011;11079;51.092;3.458;2023-12-07T12:24:09;15.95;;;9.60;;
21833;SDS011;11079;51.092;3.458;2023-12-07T12:26:41;15.82;;;9.15;;
21833;SDS011;11079;51.092;3.458;2023-12-07T12:29:09;13.13;;;8.60;;
21833;SDS011;11079;51.092;3.458;2023-12-07T12:31:36;14.63;;;8.88;;
21833;SDS011;11079;51.092;3.458;2023-12-07T12:34:02;14.05;;;8.90;;
21833;SDS011;11079;51.092;3.458;2023-12-07T12:36:33;14.98;;;9.10;;
21833;SDS011;11079;51.092;3.458;2023-12-07T12:38:59;14.63;;;9.18;;
21833;SDS011;11079;51.092;3.458;2023-12-07T12:41:27;15.68;;;8.90;;
21833;SDS011;11079;51.092;3.458;2023-12-07T12:43:55;13.75;;;8.10;;
21833;SDS011;11079;51.092;3.458;2023-12-07T12:46:22;13.60;;;8.70;;
21833;SDS011;11079;51.092;3.458;2023-12-07T12:48:52;12.55;;;8.77;;
21833;SDS011;11079;51.092;3.458;2023-12-07T12:51:27;12.35;;;8.30;;
21833;SDS011;11079;51.092;3.458;2023-12-07T12:53:56;12.02;;;8.68;;
21833;SDS011;11079;51.092;3.458;2023-12-07T12:56:24;12.55;;;9.00;;
21833;SDS011;11079;51.092;3.458;2023-12-07T12:58:52;13.25;;;8.48;;
21833;SDS011;11079;51.092;3.458;2023-12-07T13:01:21;11.93;;;7.18;;
21833;SDS011;11079;51.092;3.458;2023-12-07T13:03:47;15.43;;;8.55;;
21833;SDS011;11079;51.092;3.458;2023-12-07T13:06:13;11.93;;;8.38;;
21833;SDS011;11079;51.092;3.458;2023-12-07T13:08:40;13.85;;;8.07;;
21833;SDS011;11079;51.092;3.458;2023-12-07T13:11:14;13.68;;;8.23;;
21833;SDS011;11079;51.092;3.458;2023-12-07T13:13:41;10.63;;;8.18;;
21833;SDS011;11079;51.092;3.458;2023-12-07T13:16:06;12.18;;;7.65;;
21833;SDS011;11079;51.092;3.458;2023-12-07T13:18:32;10.15;;;7.40;;
21833;SDS011;11079;51.092;3.458;2023-12-07T13:20:58;12.57;;;7.65;;
21833;SDS011;11079;51.092;3.458;2023-12-07T13:23:24;11.82;;;8.00;;
21833;SDS011;11079;51.092;3.458;2023-12-07T13:25:50;11.65;;;7.72;;
21833;SDS011;11079;51.092;3.458;2023-12-07T13:28:16;10.93;;;7.18;;
21833;SDS011;11079;51.092;3.458;2023-12-07T13:30:42;14.23;;;7.93;;
21833;SDS011;11079;51.092;3.458;2023-12-07T13:33:08;11.32;;;8.07;;
21833;SDS011;11079;51.092;3.458;2023-12-07T13:35:34;15.32;;;7.55;;
21833;SDS011;11079;51.092;3.458;2023-12-07T13:38:00;14.93;;;7.28;;
21833;SDS011;11079;51.092;3.458;2023-12-07T13:40:26;11.23;;;7.10;;
21833;SDS011;11079;51.092;3.458;2023-12-07T13:42:52;10.88;;;7.13;;
21833;SDS011;11079;51.092;3.458;2023-12-07T13:45:20;13.57;;;7.68;;
21833;SDS011;11079;51.092;3.458;2023-12-07T13:47:45;10.85;;;6.93;;
21833;SDS011;11079;51.092;3.458;2023-12-07T13:50:12;10.75;;;6.95;;
21833;SDS011;11079;51.092;3.458;2023-12-07T13:52:38;12.05;;;6.93;;
21833;SDS011;11079;51.092;3.458;2023-12-07T13:55:04;12.20;;;6.90;;
21833;SDS011;11079;51.092;3.458;2023-12-07T13:57:30;9.80;;;6.43;;
21833;SDS011;11079;51.092;3.458;2023-12-07T13:59:56;8.55;;;6.15;;
21833;SDS011;11079;51.092;3.458;2023-12-07T14:02:22;10.40;;;5.65;;
21833;SDS011;11079;51.092;3.458;2023-12-07T14:04:48;8.38;;;5.80;;
21833;SDS011;11079;51.092;3.458;2023-12-07T14:07:16;10.18;;;6.38;;
21833;SDS011;11079;51.092;3.458;2023-12-07T14:09:43;7.82;;;5.82;;
21833;SDS011;11079;51.092;3.458;2023-12-07T14:12:11;15.15;;;6.95;;
21833;SDS011;11079;51.092;3.458;2023-12-07T14:14:38;11.25;;;6.55;;
21833;SDS011;11079;51.092;3.458;2023-12-07T14:17:04;8.55;;;6.05;;
21833;SDS011;11079;51.092;3.458;2023-12-07T14:19:30;11.80;;;5.95;;
21833;SDS011;11079;51.092;3.458;2023-12-07T14:21:56;11.52;;;5.75;;
21833;SDS011;11079;51.092;3.458;2023-12-07T14:24:23;9.70;;;5.97;;
21833;SDS011;11079;51.092;3.458;2023-12-07T14:26:49;11.52;;;6.13;;
21833;SDS011;11079;51.092;3.458;2023-12-07T14:29:15;7.72;;;5.53;;
21833;SDS011;11079;51.092;3.458;2023-12-07T14:31:43;12.02;;;6.13;;
21833;SDS011;11079;51.092;3.458;2023-12-07T14:34:10;9.15;;;5.50;;
21833;SDS011;11079;51.092;3.458;2023-12-07T14:36:36;10.88;;;5.78;;
21833;SDS011;11079;51.092;3.458;2023-12-07T14:39:03;11.00;;;6.35;;
21833;SDS011;11079;51.092;3.458;2023-12-07T14:41:32;9.85;;;5.78;;
21833;SDS011;11079;51.092;3.458;2023-12-07T14:43:58;8.75;;;5.22;;
21833;SDS011;11079;51.092;3.458;2023-12-07T14:46:24;8.80;;;5.35;;
21833;SDS011;11079;51.092;3.458;2023-12-07T14:48:50;8.88;;;5.80;;
21833;SDS011;11079;51.092;3.458;2023-12-07T14:51:19;8.40;;;5.53;;
21833;SDS011;11079;51.092;3.458;2023-12-07T14:53:46;11.30;;;5.68;;
21833;SDS011;11079;51.092;3.458;2023-12-07T14:56:12;8.48;;;5.50;;
21833;SDS011;11079;51.092;3.458;2023-12-07T14:58:38;9.63;;;6.07;;
21833;SDS011;11079;51.092;3.458;2023-12-07T15:01:05;8.95;;;5.50;;
21833;SDS011;11079;51.092;3.458;2023-12-07T15:03:31;8.60;;;5.40;;
21833;SDS011;11079;51.092;3.458;2023-12-07T15:05:57;8.63;;;5.57;;
21833;SDS011;11079;51.092;3.458;2023-12-07T15:08:23;7.70;;;5.22;;
21833;SDS011;11079;51.092;3.458;2023-12-07T15:10:49;7.63;;;5.30;;
21833;SDS011;11079;51.092;3.458;2023-12-07T15:13:17;8.10;;;5.57;;
21833;SDS011;11079;51.092;3.458;2023-12-07T15:15:43;8.75;;;5.68;;
21833;SDS011;11079;51.092;3.458;2023-12-07T15:18:10;8.10;;;5.18;;
21833;SDS011;11079;51.092;3.458;2023-12-07T15:20:35;7.68;;;4.55;;
21833;SDS011;11079;51.092;3.458;2023-12-07T15:23:01;11.93;;;5.15;;
21833;SDS011;11079;51.092;3.458;2023-12-07T15:25:28;7.82;;;5.13;;
21833;SDS011;11079;51.092;3.458;2023-12-07T15:27:56;8.40;;;4.90;;
21833;SDS011;11079;51.092;3.458;2023-12-07T15:30:23;8.05;;;5.00;;
21833;SDS011;11079;51.092;3.458;2023-12-07T15:32:49;8.07;;;5.07;;
21833;SDS011;11079;51.092;3.458;2023-12-07T15:35:15;8.93;;;4.93;;
21833;SDS011;11079;51.092;3.458;2023-12-07T15:37:41;7.75;;;5.32;;
21833;SDS011;11079;51.092;3.458;2023-12-07T15:40:07;8.02;;;5.43;;
21833;SDS011;11079;51.092;3.458;2023-12-07T15:42:37;6.40;;;4.47;;
21833;SDS011;11079;51.092;3.458;2023-12-07T15:45:07;8.38;;;5.47;;
21833;SDS011;11079;51.092;3.458;2023-12-07T15:47:33;7.18;;;5.22;;